Time;durP1;ratioP1;P1;durP2;ratioP2;P2;SDS_P1;SDS_P2;PMS_P1;PMS_P2;Temp;Humidity;BMP_temperature;BMP_pressure;BME280_temperature;BME280_humidity;BME280_pressure;Samples;Min_cycle;Max_cycle;Signal;HPM_P1;HPM_P2
2021/03/23 00:01:52;;;;;;;;;;;;;;;-1.96;53.47;95533.96;1794146;79;20415;-61
2021/03/23 00:04:20;;;;;;;;;;;;;;;-2.01;54.68;95529.50;1794381;79;20417;-61
2021/03/23 00:06:47;;;;;;;;;;;;;;;-1.98;55.67;95534.33;1793997;79;20138;-62
2021/03/23 00:09:16;;;;;;;;;;;;;;;-1.96;55.81;95536.97;1794346;80;20121;-61
2021/03/23 00:11:43;;;;;;;;;;;;;;;-1.96;57.71;95540.42;1794138;79;20168;-61
2021/03/23 00:14:13;;;;;;;;;;;;;;;-1.87;56.12;95542.80;1794266;80;20138;-61
2021/03/23 00:16:42;;;;;;;;;;;;;;;-1.80;55.72;95545.59;1794388;80;20126;-61
2021/03/23 00:19:11;;;;;;;;;;;;;;;-1.71;55.72;95538.92;1786101;80;20129;-62
2021/03/23 00:21:39;;;;;;;;;;;;;;;-1.71;55.22;95552.75;1785980;80;20117;-61
2021/03/23 00:24:07;;;;;;;;;;;;;;;-1.77;56.08;95555.16;1786022;80;20137;-62
2021/03/23 00:26:35;;;;;;;;;;;;;;;-1.83;56.07;95554.57;1766175;80;20121;-62
2021/03/23 00:29:02;;;;;;;;;;;;;;;-1.82;56.89;95555.02;1786083;80;20129;-61
2021/03/23 00:31:31;;;;;;;;;;;;;;;-1.92;56.23;95555.59;1786097;80;20240;-61
2021/03/23 00:34:03;;;;;;;;;;;;;;;-1.93;57.06;95561.61;1785959;80;20117;-61
2021/03/23 00:36:36;;;;;;;;;;;;;;;-1.90;57.19;95565.99;1786137;80;20118;-61
2021/03/23 00:39:06;;;;;;;;;;;;;;;-1.85;57.77;95562.70;1786123;80;20414;-61
2021/03/23 00:41:37;;;;;;;;;;;;;;;-1.99;56.99;95571.38;1785835;80;20169;-62
2021/03/23 00:44:06;;;;;;;;;;;;;;;-2.15;57.51;95574.74;1786292;80;20262;-61
2021/03/23 00:46:33;;;;;;;;;;;;;;;-2.18;57.01;95571.23;1786298;80;20145;-61
2021/03/23 00:49:01;;;;;;;;;;;;;;;-2.18;57.58;95580.28;1786035;80;20114;-62
2021/03/23 00:51:28;;;;;;;;;;;;;;;-2.18;56.89;95581.99;1785940;80;20129;-62
2021/03/23 00:53:56;;;;;;;;;;;;;;;-2.18;57.14;95581.99;1786091;80;20431;-61
2021/03/23 00:56:24;;;;;;;;;;;;;;;-2.16;56.83;95579.47;1785985;80;20168;-61
2021/03/23 00:58:51;;;;;;;;;;;;;;;-2.17;56.38;95573.39;1786293;80;20510;-61
2021/03/23 01:01:19;;;;;;;;;;;;;;;-2.20;56.30;95572.02;1786462;80;20153;-61
2021/03/23 01:03:47;;;;;;;;;;;;;;;-2.27;56.35;95564.52;1786101;80;20228;-61
2021/03/23 01:06:15;;;;;;;;;;;;;;;-2.32;56.34;95566.48;1785962;80;20157;-62
2021/03/23 01:08:42;;;;;;;;;;;;;;;-2.44;57.41;95565.29;1786269;80;20431;-62
2021/03/23 01:11:09;;;;;;;;;;;;;;;-2.42;57.20;95567.52;1786437;80;20228;-61
2021/03/23 01:13:37;;;;;;;;;;;;;;;-2.47;57.79;95574.25;1786132;80;20138;-61
2021/03/23 01:16:07;;;;;;;;;;;;;;;-2.54;56.83;95573.59;1786169;80;20142;-61
2021/03/23 01:18:35;;;;;;;;;;;;;;;-2.59;56.31;95569.98;1791388;79;20418;-61
2021/03/23 01:21:04;;;;;;;;;;;;;;;-2.66;56.04;95571.48;1794047;80;20490;-62
2021/03/23 01:23:32;;;;;;;;;;;;;;;-2.70;56.32;95572.20;1794322;80;20137;-61
2021/03/23 01:26:00;;;;;;;;;;;;;;;-2.75;57.61;95575.48;1794295;79;20118;-61
2021/03/23 01:28:27;;;;;;;;;;;;;;;-2.87;57.60;95571.70;1794396;79;20130;-62
2021/03/23 01:30:54;;;;;;;;;;;;;;;-2.98;58.74;95575.61;1785046;80;20144;-61
2021/03/23 01:33:22;;;;;;;;;;;;;;;-3.14;57.86;95584.98;1794181;80;20130;-61
2021/03/23 01:35:50;;;;;;;;;;;;;;;-3.08;57.97;95586.05;1794156;79;20129;-62
2021/03/23 01:38:17;;;;;;;;;;;;;;;-3.08;58.40;95594.20;1794391;80;20145;-61
2021/03/23 01:40:44;;;;;;;;;;;;;;;-3.18;58.73;95589.14;1794180;79;20137;-62
2021/03/23 01:43:24;;;;;;;;;;;;;;;-3.16;59.66;95591.38;1794387;79;20151;-61
2021/03/23 01:45:52;;;;;;;;;;;;;;;-3.15;59.11;95594.83;1794444;79;20130;-61
2021/03/23 01:48:23;;;;;;;;;;;;;;;-3.15;58.39;95590.56;1794388;80;20394;-61
2021/03/23 01:50:56;;;;;;;;;;;;;;;-3.10;58.50;95594.56;1794045;80;20125;-62
2021/03/23 01:53:36;;;;;;;;;;;;;;;-3.09;58.21;95592.05;1794123;80;20169;-61
2021/03/23 01:56:05;;;;;;;;;;;;;;;-3.07;57.79;95596.86;1794250;80;20145;-61
2021/03/23 01:58:35;;;;;;;;;;;;;;;-3.12;57.88;95592.38;1794127;79;20137;-61
2021/03/23 02:01:04;;;;;;;;;;;;;;;-3.13;58.28;95598.34;1794498;79;20126;-61
2021/03/23 02:03:32;;;;;;;;;;;;;;;-3.18;58.96;95596.02;1794357;80;20398;-61
2021/03/23 02:06:02;;;;;;;;;;;;;;;-3.28;58.36;95598.31;1793996;79;20137;-61
2021/03/23 02:08:29;;;;;;;;;;;;;;;-3.26;58.41;95600.50;1794215;79;20129;-62
2021/03/23 02:11:00;;;;;;;;;;;;;;;-3.25;58.16;95596.25;1794502;79;20140;-61
2021/03/23 02:13:28;;;;;;;;;;;;;;;-3.26;57.84;95601.79;1794292;80;20139;-61
2021/03/23 02:15:56;;;;;;;;;;;;;;;-3.29;57.83;95600.82;1794280;79;20117;-61
2021/03/23 02:18:26;;;;;;;;;;;;;;;-3.42;58.36;95606.39;1790493;79;20489;-61
2021/03/23 02:21:00;;;;;;;;;;;;;;;-3.45;58.38;95608.84;1785963;80;20129;-62
2021/03/23 02:23:33;;;;;;;;;;;;;;;-3.51;58.65;95614.66;1786096;80;20118;-61
2021/03/23 02:26:03;;;;;;;;;;;;;;;-3.50;59.19;95616.02;1786311;80;20138;-61
2021/03/23 02:28:32;;;;;;;;;;;;;;;-3.76;59.17;95620.23;1786102;80;20129;-61
2021/03/23 02:30:59;;;;;;;;;;;;;;;-3.93;59.54;95625.20;1786407;80;20129;-61
2021/03/23 02:33:27;;;;;;;;;;;;;;;-4.07;59.88;95627.25;1786203;80;20220;-61
2021/03/23 02:35:55;;;;;;;;;;;;;;;-4.07;60.70;95642.72;1786374;80;20248;-62
2021/03/23 02:38:22;;;;;;;;;;;;;;;-4.12;59.95;95642.08;1786254;80;20224;-61
2021/03/23 02:40:49;;;;;;;;;;;;;;;-4.09;60.47;95648.22;1786000;80;20411;-61
2021/03/23 02:43:16;;;;;;;;;;;;;;;-4.17;60.81;95647.05;1786492;80;20228;-61
2021/03/23 02:45:47;;;;;;;;;;;;;;;-4.10;60.64;95647.76;1766455;80;20145;-61
2021/03/23 02:48:15;;;;;;;;;;;;;;;-4.14;60.19;95650.61;1785842;80;20506;-61
2021/03/23 02:50:43;;;;;;;;;;;;;;;-4.28;60.51;95653.47;1786334;80;20146;-61
2021/03/23 02:53:10;;;;;;;;;;;;;;;-4.58;62.35;95659.20;1786179;80;20420;-61
2021/03/23 02:55:37;;;;;;;;;;;;;;;-4.55;61.45;95663.59;1785974;80;20408;-61
2021/03/23 02:58:05;;;;;;;;;;;;;;;-4.46;61.27;95664.84;1786188;80;20232;-61
2021/03/23 03:00:32;;;;;;;;;;;;;;;-4.40;61.41;95656.47;1786376;80;20252;-61
2021/03/23 03:03:00;;;;;;;;;;;;;;;-4.30;61.07;95665.02;1786140;80;20145;-61
2021/03/23 03:05:29;;;;;;;;;;;;;;;-4.24;60.85;95660.52;1784348;80;20228;-61
2021/03/23 03:07:57;;;;;;;;;;;;;;;-4.21;60.70;95665.39;1785890;80;20236;-62
2021/03/23 03:10:25;;;;;;;;;;;;;;;-4.37;60.39;95672.91;1786364;80;20232;-61
2021/03/23 03:12:53;;;;;;;;;;;;;;;-4.48;61.36;95667.75;1786154;80;20129;-61
2021/03/23 03:15:21;;;;;;;;;;;;;;;-4.47;61.00;95668.62;1786009;80;20121;-61
2021/03/23 03:17:48;;;;;;;;;;;;;;;-4.58;61.36;95669.49;1787609;79;20137;-61
2021/03/23 03:20:17;;;;;;;;;;;;;;;-4.79;62.16;95670.38;1790635;80;20132;-61
2021/03/23 03:22:44;;;;;;;;;;;;;;;-4.93;63.18;95672.78;1803713;80;20160;-61
2021/03/23 03:25:13;;;;;;;;;;;;;;;-5.04;62.62;95677.50;1804174;80;20117;-61
2021/03/23 03:27:41;;;;;;;;;;;;;;;-5.06;64.50;95679.12;1804216;79;20133;-61
2021/03/23 03:30:12;;;;;;;;;;;;;;;-5.00;63.34;95683.64;1803812;79;20141;-61
2021/03/23 03:32:40;;;;;;;;;;;;;;;-5.02;62.53;95683.55;1803764;79;20129;-61
2021/03/23 03:35:09;;;;;;;;;;;;;;;-5.16;62.39;95683.81;1803865;79;20133;-61
2021/03/23 03:37:36;;;;;;;;;;;;;;;-5.22;62.79;95689.55;1803803;79;20117;-61
2021/03/23 03:40:10;;;;;;;;;;;;;;;-5.24;62.73;95691.20;1804244;79;20180;-61
2021/03/23 03:42:37;;;;;;;;;;;;;;;-5.26;62.91;95693.70;1804164;79;20406;-61
2021/03/23 03:45:07;;;;;;;;;;;;;;;-5.26;62.80;95699.26;1803909;79;20434;-61
2021/03/23 03:47:34;;;;;;;;;;;;;;;-5.38;62.65;95694.45;1804004;79;20117;-61
2021/03/23 03:50:04;;;;;;;;;;;;;;;-5.40;63.28;95689.64;1803745;79;20149;-62
2021/03/23 03:52:31;;;;;;;;;;;;;;;-5.29;63.12;95693.95;1803759;79;20156;-61
2021/03/23 03:54:59;;;;;;;;;;;;;;;-5.22;63.03;95695.61;1804045;79;20124;-61
2021/03/23 03:57:26;;;;;;;;;;;;;;;-5.15;62.87;95692.86;1804288;79;20129;-61
2021/03/23 03:59:54;;;;;;;;;;;;;;;-5.13;62.68;95696.39;1804171;80;20156;-61
2021/03/23 04:02:21;;;;;;;;;;;;;;;-5.20;62.81;95701.20;1804197;79;20129;-61
2021/03/23 04:04:49;;;;;;;;;;;;;;;-5.16;63.13;95701.83;1804099;80;20137;-61
2021/03/23 04:07:16;;;;;;;;;;;;;;;-5.14;62.89;95697.59;1803834;80;20137;-61
2021/03/23 04:09:43;;;;;;;;;;;;;;;-5.11;63.06;95706.76;1803890;79;20220;-61
2021/03/23 04:12:11;;;;;;;;;;;;;;;-5.23;62.99;95714.41;1803924;80;20117;-61
2021/03/23 04:14:38;;;;;;;;;;;;;;;-5.23;62.87;95712.25;1804049;80;20152;-61
2021/03/23 04:17:06;;;;;;;;;;;;;;;-5.22;62.79;95708.47;1803820;79;20395;-61
2021/03/23 04:19:34;;;;;;;;;;;;;;;-5.20;63.20;95715.35;1803842;79;20168;-62
2021/03/23 04:22:02;;;;;;;;;;;;;;;-5.21;62.99;95717.05;1803772;79;20121;-62
2021/03/23 04:24:29;;;;;;;;;;;;;;;-5.16;62.75;95720.70;1804195;79;20117;-63
2021/03/23 04:26:56;;;;;;;;;;;;;;;-5.30;63.28;95727.80;1804097;79;20121;-63
2021/03/23 04:29:24;;;;;;;;;;;;;;;-5.38;62.83;95725.31;1804096;79;20426;-62
2021/03/23 04:31:51;;;;;;;;;;;;;;;-5.60;63.05;95726.45;1804460;79;20117;-62
2021/03/23 04:34:18;;;;;;;;;;;;;;;-5.78;63.20;95729.95;1804024;79;20149;-63
2021/03/23 04:36:47;;;;;;;;;;;;;;;-5.80;64.04;95722.56;1802511;79;20133;-63
2021/03/23 04:39:15;;;;;;;;;;;;;;;-5.89;65.22;95732.45;1803884;79;20144;-62
2021/03/23 04:41:42;;;;;;;;;;;;;;;-5.94;64.79;95731.39;1804445;79;20129;-63
2021/03/23 04:44:10;;;;;;;;;;;;;;;-5.87;65.71;95736.84;1804306;79;20129;-63
2021/03/23 04:46:37;;;;;;;;;;;;;;;-5.83;66.54;95744.27;1803975;79;20145;-62
2021/03/23 04:49:05;;;;;;;;;;;;;;;-5.79;66.55;95742.75;1804174;79;20121;-63
2021/03/23 04:51:32;;;;;;;;;;;;;;;-5.78;67.69;95740.22;1804333;79;20117;-64
2021/03/23 04:54:06;;;;;;;;;;;;;;;-5.67;66.16;95743.27;1803807;79;20399;-63
2021/03/23 04:56:42;;;;;;;;;;;;;;;-5.61;66.00;95738.43;1820410;79;20123;-64
2021/03/23 04:59:10;;;;;;;;;;;;;;;-5.87;67.82;95752.26;1791350;80;20154;-65
2021/03/23 05:01:38;;;;;;;;;;;;;;;-5.82;68.74;95747.72;1791465;80;20130;-65
2021/03/23 05:04:15;;;;;;;;;;;;;;;-5.70;68.52;95749.16;1791169;80;20150;-65
2021/03/23 05:06:43;;;;;;;;;;;;;;;-5.60;68.53;95751.74;1791181;80;20185;-65
2021/03/23 05:09:11;;;;;;;;;;;;;;;-5.47;68.33;95757.94;1790934;80;20457;-65
2021/03/23 05:11:38;;;;;;;;;;;;;;;-5.35;67.31;95758.87;1791145;80;20154;-65
2021/03/23 05:14:07;;;;;;;;;;;;;;;-5.37;68.18;95759.20;1791423;80;20157;-64
2021/03/23 05:16:35;;;;;;;;;;;;;;;-5.31;67.96;95762.06;1791426;80;20170;-65
2021/03/23 05:19:04;;;;;;;;;;;;;;;-5.15;67.81;95761.03;1791400;80;20157;-65
2021/03/23 05:21:32;;;;;;;;;;;;;;;-5.03;68.00;95748.70;1791142;80;20138;-65
2021/03/23 05:24:01;;;;;;;;;;;;;;;-4.95;67.75;95747.75;1791065;80;20451;-65
2021/03/23 05:26:31;;;;;;;;;;;;;;;-4.87;67.20;95741.64;1791251;80;20185;-66
2021/03/23 05:28:58;;;;;;;;;;;;;;;-4.92;67.26;95747.00;1786622;80;20135;-67
2021/03/23 05:31:26;;;;;;;;;;;;;;;-4.91;67.09;95739.36;1777863;80;20164;-66
2021/03/23 05:33:54;;;;;;;;;;;;;;;-4.72;66.49;95741.41;1789709;80;20120;-65
2021/03/23 05:36:23;;;;;;;;;;;;;;;-4.61;66.14;95741.44;1789239;80;20151;-65
2021/03/23 05:38:50;;;;;;;;;;;;;;;-4.44;65.92;95738.28;1759742;82;20505;-65
2021/03/23 05:41:44;;;;;;;;;;;;;;;-4.27;64.76;95744.12;1760270;82;20256;-65
2021/03/23 05:44:18;;;;;;;;;;;;;;;-4.22;64.37;95743.48;1760223;82;20239;-65
2021/03/23 05:46:46;;;;;;;;;;;;;;;-4.01;64.26;95744.73;1759914;81;20470;-65
2021/03/23 05:49:19;;;;;;;;;;;;;;;-3.93;63.90;95747.64;1760017;82;20152;-65
2021/03/23 05:51:59;;;;;;;;;;;;;;;-3.93;63.68;95748.92;1759986;82;20160;-65
2021/03/23 05:54:49;;;;;;;;;;;;;;;-3.84;63.54;95759.58;1756504;80;20141;-62
2021/03/23 05:57:24;;;;;;;;;;;;;;;-3.74;63.33;95757.82;1761400;80;20124;-62
2021/03/23 05:59:58;;;;;;;;;;;;;;;-3.57;62.19;95746.86;1740161;82;20181;-63
2021/03/23 06:02:57;;;;;;;;;;;;;;;-3.45;61.57;95759.73;1731368;83;20404;-68
2021/03/23 06:05:45;;;;;;;;;;;;;;;-3.38;61.66;95755.28;1709073;84;20160;-66
2021/03/23 06:08:34;;;;;;;;;;;;;;;-3.39;61.77;95753.54;1708508;84;20402;-63
2021/03/23 06:11:25;;;;;;;;;;;;;;;-3.45;61.90;95752.00;1714701;83;20629;-69
2021/03/23 06:14:21;;;;;;;;;;;;;;;-3.39;61.11;95753.54;1719133;82;20452;-63
2021/03/23 06:17:01;;;;;;;;;;;;;;;-3.31;60.81;95758.56;1713555;83;20138;-64
2021/03/23 06:19:41;;;;;;;;;;;;;;;-3.18;60.29;95756.02;1737935;82;20426;-65
2021/03/23 06:22:30;;;;;;;;;;;;;;;-3.13;59.90;95750.61;1737691;83;20157;-64
2021/03/23 06:25:05;;;;;;;;;;;;;;;-3.02;59.71;95759.63;1733718;83;20144;-65
2021/03/23 06:27:41;;;;;;;;;;;;;;;-2.91;59.87;95760.01;1737868;82;20487;-64
2021/03/23 06:30:34;;;;;;;;;;;;;;;-2.75;59.83;95755.83;1718874;83;20145;-63
2021/03/23 06:33:02;;;;;;;;;;;;;;;-2.55;58.36;95749.19;1708426;84;20449;-64
2021/03/23 06:35:33;;;;;;;;;;;;;;;-2.25;58.77;95751.92;1708543;84;20146;-68
2021/03/23 06:38:05;;;;;;;;;;;;;;;-2.10;58.17;95754.13;1708925;84;20153;-66
2021/03/23 06:40:35;;;;;;;;;;;;;;;-2.00;57.90;95749.72;1708304;84;20177;-67
2021/03/23 06:43:16;;;;;;;;;;;;;;;-1.90;56.42;95740.13;1708500;84;20134;-66
2021/03/23 06:45:43;;;;;;;;;;;;;;;-1.87;55.74;95740.21;1708345;84;20126;-63
2021/03/23 06:48:21;;;;;;;;;;;;;;;-1.80;56.09;95739.58;1708463;84;20162;-67
2021/03/23 06:50:49;;;;;;;;;;;;;;;-1.76;55.71;95740.15;1708724;84;20170;-65
2021/03/23 06:53:21;;;;;;;;;;;;;;;-1.61;55.25;95744.92;1708416;84;20415;-64
2021/03/23 06:55:49;;;;;;;;;;;;;;;-1.47;55.23;95745.73;1718215;83;20145;-62
2021/03/23 06:58:30;;;;;;;;;;;;;;;-1.29;54.09;95747.56;1708830;82;20508;-62
2021/03/23 07:01:12;;;;;;;;;;;;;;;-1.16;54.47;95748.80;1722432;82;20150;-63
2021/03/23 07:03:41;;;;;;;;;;;;;;;-1.01;53.65;95742.75;1725172;82;20155;-64
2021/03/23 07:06:24;;;;;;;;;;;;;;;-0.85;53.64;95739.32;1708820;82;20166;-64
2021/03/23 07:09:09;;;;;;;;;;;;;;;-0.70;53.24;95741.03;1746009;82;20134;-64
2021/03/23 07:11:59;;;;;;;;;;;;;;;-0.61;53.14;95745.56;1728993;83;20151;-63
2021/03/23 07:14:38;;;;;;;;;;;;;;;-0.49;53.13;95745.47;1649000;86;20166;-62
2021/03/23 07:17:12;;;;;;;;;;;;;;;-0.35;51.78;95742.34;1669174;86;20165;-63
2021/03/23 07:19:46;;;;;;;;;;;;;;;-0.21;53.04;95734.51;1717061;84;20135;-63
2021/03/23 07:22:17;;;;;;;;;;;;;;;0.07;52.90;95731.29;1716777;83;20164;-65
2021/03/23 07:24:56;;;;;;;;;;;;;;;0.22;52.06;95726.46;1716713;83;20250;-65
2021/03/23 07:27:26;;;;;;;;;;;;;;;0.32;51.81;95728.42;1717125;83;20413;-63
2021/03/23 07:30:22;;;;;;;;;;;;;;;0.46;51.47;95739.14;1669333;85;20169;-63
2021/03/23 07:32:51;;;;;;;;;;;;;;;0.58;51.29;95734.22;1729871;83;20129;-65
2021/03/23 07:35:28;;;;;;;;;;;;;;;0.66;50.58;95727.02;1705269;83;20158;-65
2021/03/23 07:38:00;;;;;;;;;;;;;;;0.74;51.36;95725.45;1729973;83;20158;-64
2021/03/23 07:40:48;;;;;;;;;;;;;;;0.95;51.87;95735.41;1729997;83;20145;-63
2021/03/23 07:43:28;;;;;;;;;;;;;;;1.15;51.63;95726.28;1729897;82;20403;-66
2021/03/23 07:46:02;;;;;;;;;;;;;;;1.37;50.86;95718.48;1730015;82;20395;-62
2021/03/23 07:48:44;;;;;;;;;;;;;;;1.59;49.77;95722.77;1705708;83;20138;-64
2021/03/23 07:51:36;;;;;;;;;;;;;;;1.60;49.70;95716.30;1729994;82;20126;-66
2021/03/23 07:54:14;;;;;;;;;;;;;;;1.66;48.37;95720.33;1729756;83;20141;-64
2021/03/23 07:57:00;;;;;;;;;;;;;;;1.70;47.42;95721.25;1730998;82;20147;-62
2021/03/23 07:59:52;;;;;;;;;;;;;;;1.68;46.58;95722.50;1733494;82;20437;-65
2021/03/23 08:02:42;;;;;;;;;;;;;;;1.64;47.27;95716.82;1733462;82;20143;-64
2021/03/23 08:05:14;;;;;;;;;;;;;;;1.82;48.55;95714.09;1731675;82;20134;-64
2021/03/23 08:07:53;;;;;;;;;;;;;;;1.93;47.29;95722.94;1716973;84;20150;-65
2021/03/23 08:10:30;;;;;;;;;;;;;;;1.99;46.75;95714.34;1702424;84;20139;-64
2021/03/23 08:13:21;;;;;;;;;;;;;;;2.12;47.78;95721.53;1731512;83;20139;-65
2021/03/23 08:15:58;;;;;;;;;;;;;;;2.28;45.43;95717.42;1716951;84;20123;-63
2021/03/23 08:18:32;;;;;;;;;;;;;;;2.46;45.01;95716.81;1702350;84;20151;-64
2021/03/23 08:21:13;;;;;;;;;;;;;;;2.53;42.74;95715.63;1731679;83;20135;-66
2021/03/23 08:23:53;;;;;;;;;;;;;;;2.51;44.62;95718.63;1732681;83;20146;-64
2021/03/23 08:26:33;;;;;;;;;;;;;;;2.61;44.82;95719.64;1733502;83;20140;-64
2021/03/23 08:29:10;;;;;;;;;;;;;;;2.71;44.47;95717.61;1731653;82;20158;-64
2021/03/23 08:32:11;;;;;;;;;;;;;;;2.89;44.19;95707.85;1716590;84;20134;-65
2021/03/23 08:34:42;;;;;;;;;;;;;;;2.98;44.50;95708.41;1702637;84;20135;-64
2021/03/23 08:37:37;;;;;;;;;;;;;;;3.06;41.93;95711.11;1731818;82;20142;-64
2021/03/23 08:40:25;;;;;;;;;;;;;;;3.00;43.49;95711.92;1716709;84;20134;-63
2021/03/23 08:42:53;;;;;;;;;;;;;;;3.00;40.98;95702.80;1716882;84;20261;-64
2021/03/23 08:45:25;;;;;;;;;;;;;;;2.99;42.01;95701.89;1716941;84;20130;-66
2021/03/23 08:48:05;;;;;;;;;;;;;;;3.02;40.32;95696.75;1702683;84;20479;-63
2021/03/23 08:50:38;;;;;;;;;;;;;;;3.08;38.56;95705.06;1704109;84;20184;-62
2021/03/23 08:53:26;;;;;;;;;;;;;;;3.02;40.09;95692.84;1733007;83;20127;-64
2021/03/23 08:55:54;;;;;;;;;;;;;;;3.08;39.50;95697.23;1731435;83;20237;-65
2021/03/23 08:58:28;;;;;;;;;;;;;;;3.11;41.07;95697.27;1733731;82;20134;-67
2021/03/23 09:01:08;;;;;;;;;;;;;;;3.20;40.58;95692.17;1820358;79;20151;-67
2021/03/23 09:03:42;;;;;;;;;;;;;;;3.40;40.02;95688.88;1788290;80;20177;-65
2021/03/23 09:06:13;;;;;;;;;;;;;;;3.51;41.62;95691.19;1791177;80;20412;-63
2021/03/23 09:08:47;;;;;;;;;;;;;;;3.67;40.39;95689.16;1791261;80;20154;-62
2021/03/23 09:11:40;;;;;;;;;;;;;;;3.85;39.20;95689.76;1791240;80;20491;-61
2021/03/23 09:14:13;;;;;;;;;;;;;;;3.98;38.08;95684.24;1791280;80;20435;-62
2021/03/23 09:17:02;;;;;;;;;;;;;;;4.07;38.36;95678.20;1791187;80;20449;-61
2021/03/23 09:19:40;;;;;;;;;;;;;;;4.04;38.00;95680.80;1791618;80;20142;-62
2021/03/23 09:22:20;;;;;;;;;;;;;;;3.87;38.54;95689.34;1791201;80;20439;-62
2021/03/23 09:24:49;;;;;;;;;;;;;;;4.01;38.42;95677.73;1791333;80;20161;-61
2021/03/23 09:27:29;;;;;;;;;;;;;;;4.27;37.06;95668.77;1791317;80;20158;-62
2021/03/23 09:29:56;;;;;;;;;;;;;;;4.38;37.82;95668.84;1791254;80;20126;-62
2021/03/23 09:32:26;;;;;;;;;;;;;;;4.58;37.19;95668.96;1791430;80;20166;-62
2021/03/23 09:35:10;;;;;;;;;;;;;;;4.61;38.31;95666.39;1791346;80;20155;-62
2021/03/23 09:37:41;;;;;;;;;;;;;;;4.65;36.79;95664.22;1791183;80;20475;-62
2021/03/23 09:40:22;;;;;;;;;;;;;;;4.73;36.80;95663.81;1791169;80;20170;-61
2021/03/23 09:42:59;;;;;;;;;;;;;;;4.96;38.40;95656.52;1791245;80;20427;-62
2021/03/23 09:45:33;;;;;;;;;;;;;;;4.91;36.75;95664.36;1791217;80;20159;-61
2021/03/23 09:48:02;;;;;;;;;;;;;;;4.91;37.49;95667.38;1791304;80;20165;-61
2021/03/23 09:50:37;;;;;;;;;;;;;;;4.89;38.52;95660.86;1763108;80;20146;-61
2021/03/23 09:53:37;;;;;;;;;;;;;;;4.86;38.97;95651.67;1791130;80;20201;-61
2021/03/23 09:56:14;;;;;;;;;;;;;;;4.84;38.20;95649.92;1790930;80;20166;-61
2021/03/23 09:58:42;;;;;;;;;;;;;;;4.75;40.11;95646.84;1791402;80;20142;-61
2021/03/23 10:01:12;;;;;;;;;;;;;;;4.81;39.48;95647.30;1786375;80;20158;-64
2021/03/23 10:03:41;;;;;;;;;;;;;;;4.93;39.74;95642.13;1786240;80;20150;-61
2021/03/23 10:06:19;;;;;;;;;;;;;;;5.16;39.93;95640.45;1786391;80;20451;-61
2021/03/23 10:08:56;;;;;;;;;;;;;;;5.42;38.59;95637.05;1759407;80;20431;-61
2021/03/23 10:11:26;;;;;;;;;;;;;;;5.56;38.12;95627.46;1785919;80;20146;-61
2021/03/23 10:14:01;;;;;;;;;;;;;;;5.64;38.79;95630.09;1785552;80;20165;-61
2021/03/23 10:16:31;;;;;;;;;;;;;;;5.61;38.46;95627.03;1785552;80;20431;-61
2021/03/23 10:19:10;;;;;;;;;;;;;;;5.64;37.60;95627.47;1785644;80;20166;-61
2021/03/23 10:21:42;;;;;;;;;;;;;;;5.46;38.08;95627.45;1785882;80;20135;-60
2021/03/23 10:24:19;;;;;;;;;;;;;;;5.43;38.39;95627.88;1785276;80;20146;-61
2021/03/23 10:26:50;;;;;;;;;;;;;;;5.63;38.71;95621.37;1785536;80;20135;-60
2021/03/23 10:29:22;;;;;;;;;;;;;;;5.50;38.01;95622.23;1785560;80;20158;-61
2021/03/23 10:31:51;;;;;;;;;;;;;;;5.31;38.50;95617.83;1784207;80;20420;-61
2021/03/23 10:34:23;;;;;;;;;;;;;;;5.41;39.98;95610.44;1785629;80;20166;-61
2021/03/23 10:37:04;;;;;;;;;;;;;;;5.43;39.99;95616.11;1785756;80;20161;-61
2021/03/23 10:39:41;;;;;;;;;;;;;;;5.25;38.83;95620.44;1785158;80;20150;-61
2021/03/23 10:42:31;;;;;;;;;;;;;;;5.24;41.25;95614.75;1784859;80;20170;-61
2021/03/23 10:45:36;;;;;;;;;;;;;;;5.46;40.06;95616.98;1785459;80;20158;-61
2021/03/23 10:48:08;;;;;;;;;;;;;;;5.51;40.45;95613.94;1767127;81;20137;-61
2021/03/23 10:50:38;;;;;;;;;;;;;;;5.56;40.50;95602.59;1783158;80;20175;-61
2021/03/23 10:53:11;;;;;;;;;;;;;;;5.54;40.42;95610.87;1785332;80;20483;-61
2021/03/23 10:55:44;;;;;;;;;;;;;;;5.81;41.04;95604.80;1785439;80;20155;-61
2021/03/23 10:58:21;;;;;;;;;;;;;;;5.76;40.94;95603.92;1785360;80;20147;-61
2021/03/23 11:01:09;;;;;;;;;;;;;;;5.74;39.78;95597.80;1779569;80;20158;-60
2021/03/23 11:03:41;;;;;;;;;;;;;;;5.85;41.65;95603.06;1777217;81;20143;-61
2021/03/23 11:06:28;;;;;;;;;;;;;;;5.97;40.82;95596.55;1777195;81;20158;-61
2021/03/23 11:08:57;;;;;;;;;;;;;;;5.95;39.56;95604.84;1777214;81;20147;-61
2021/03/23 11:11:24;;;;;;;;;;;;;;;5.74;40.15;95604.80;1777187;81;20175;-60
2021/03/23 11:13:51;;;;;;;;;;;;;;;5.55;40.94;95605.23;1777019;81;20159;-61
2021/03/23 11:16:21;;;;;;;;;;;;;;;5.38;41.71;95597.35;1777201;81;20404;-60
2021/03/23 11:18:49;;;;;;;;;;;;;;;5.20;42.96;95598.19;1777075;81;20439;-60
2021/03/23 11:21:19;;;;;;;;;;;;;;;5.30;42.11;95601.70;1777082;81;20155;-61
2021/03/23 11:23:51;;;;;;;;;;;;;;;5.30;43.22;95592.55;1777191;81;20142;-61
2021/03/23 11:26:25;;;;;;;;;;;;;;;5.41;41.75;95585.58;1777003;81;20421;-61
2021/03/23 11:28:56;;;;;;;;;;;;;;;5.38;41.39;95590.37;1777069;81;20444;-61
2021/03/23 11:31:26;;;;;;;;;;;;;;;5.50;42.45;95580.80;1776988;81;20131;-60
2021/03/23 11:33:59;;;;;;;;;;;;;;;5.57;41.43;95586.04;1777162;81;20259;-61
2021/03/23 11:36:29;;;;;;;;;;;;;;;5.60;41.85;95574.70;1777182;81;20147;-60
2021/03/23 11:38:58;;;;;;;;;;;;;;;5.51;40.63;95575.99;1777123;81;20444;-61
2021/03/23 11:41:35;;;;;;;;;;;;;;;5.42;40.00;95579.48;1776894;81;20175;-60
2021/03/23 11:44:06;;;;;;;;;;;;;;;5.38;40.34;95572.50;1777128;81;20142;-60
2021/03/23 11:46:49;;;;;;;;;;;;;;;5.40;40.63;95566.39;1777043;81;20147;-60
2021/03/23 11:49:24;;;;;;;;;;;;;;;5.39;41.42;95563.77;1776820;81;20148;-60
2021/03/23 11:51:53;;;;;;;;;;;;;;;5.48;40.87;95569.02;1776959;81;20147;-60
2021/03/23 11:54:21;;;;;;;;;;;;;;;5.56;42.74;95561.16;1777013;81;20420;-61
2021/03/23 11:56:49;;;;;;;;;;;;;;;5.50;40.27;95559.87;1776962;81;20150;-60
2021/03/23 11:59:18;;;;;;;;;;;;;;;5.39;39.97;95558.53;1757590;81;20143;-61
2021/03/23 12:01:45;;;;;;;;;;;;;;;5.24;40.68;95563.34;1785186;80;20467;-60
2021/03/23 12:04:14;;;;;;;;;;;;;;;5.20;40.62;95557.20;1785590;80;20166;-61
2021/03/23 12:06:54;;;;;;;;;;;;;;;5.24;42.89;95555.89;1785693;80;20135;-60
2021/03/23 12:09:34;;;;;;;;;;;;;;;5.11;40.58;95562.41;1785658;80;20154;-60
2021/03/23 12:12:11;;;;;;;;;;;;;;;4.90;40.67;95561.94;1783009;80;20447;-60
2021/03/23 12:14:55;;;;;;;;;;;;;;;4.78;41.43;95556.67;1785547;80;20431;-60
2021/03/23 12:17:23;;;;;;;;;;;;;;;4.77;41.44;95551.88;1785335;80;20138;-60
2021/03/23 12:19:59;;;;;;;;;;;;;;;4.82;41.58;95551.03;1785948;80;20166;-61
2021/03/23 12:22:26;;;;;;;;;;;;;;;4.86;41.60;95552.33;1783907;80;20178;-61
2021/03/23 12:24:54;;;;;;;;;;;;;;;4.91;41.97;95548.02;1785497;80;20131;-61
2021/03/23 12:27:22;;;;;;;;;;;;;;;4.81;41.32;95543.59;1785696;80;20146;-60
2021/03/23 12:29:49;;;;;;;;;;;;;;;4.62;42.66;95538.77;1785576;80;20170;-61
2021/03/23 12:32:18;;;;;;;;;;;;;;;4.48;42.37;95542.62;1785709;80;20473;-60
2021/03/23 12:34:47;;;;;;;;;;;;;;;4.40;43.17;95552.61;1785483;80;20428;-60
2021/03/23 12:37:16;;;;;;;;;;;;;;;4.04;44.26;95541.98;1785520;80;20162;-60
2021/03/23 12:39:44;;;;;;;;;;;;;;;4.10;44.54;95549.84;1785476;80;20163;-60
2021/03/23 12:42:16;;;;;;;;;;;;;;;4.03;44.87;95546.78;1785406;80;20412;-60
2021/03/23 12:44:44;;;;;;;;;;;;;;;4.02;45.22;95534.56;1785555;80;20166;-60
2021/03/23 12:47:13;;;;;;;;;;;;;;;4.06;44.90;95538.09;1785791;80;20154;-60
2021/03/23 12:49:42;;;;;;;;;;;;;;;4.08;45.00;95534.63;1785659;80;20186;-60
2021/03/23 12:52:15;;;;;;;;;;;;;;;4.03;45.39;95541.55;1785565;80;20400;-60
2021/03/23 12:54:55;;;;;;;;;;;;;;;3.95;45.89;95534.09;1785455;80;20139;-60
2021/03/23 12:57:26;;;;;;;;;;;;;;;3.76;46.68;95537.47;1785372;80;20436;-61
2021/03/23 12:59:56;;;;;;;;;;;;;;;3.77;46.20;95534.84;1784776;80;20153;-61
2021/03/23 13:02:26;;;;;;;;;;;;;;;3.66;46.67;95529.56;1776940;81;20147;-60
2021/03/23 13:04:55;;;;;;;;;;;;;;;3.66;47.23;95537.39;1776932;81;20162;-60
2021/03/23 13:07:27;;;;;;;;;;;;;;;3.70;47.26;95533.05;1776961;81;20131;-60
2021/03/23 13:09:54;;;;;;;;;;;;;;;3.64;48.24;95549.98;1777248;81;20134;-60
2021/03/23 13:12:24;;;;;;;;;;;;;;;3.59;48.10;95532.13;1776805;81;20142;-60
2021/03/23 13:14:51;;;;;;;;;;;;;;;3.44;49.38;95536.34;1776935;81;20147;-60
2021/03/23 13:17:21;;;;;;;;;;;;;;;3.45;49.16;95535.91;1777027;81;20127;-60
2021/03/23 13:19:49;;;;;;;;;;;;;;;3.46;49.66;95541.16;1777055;81;20150;-60